createdAt,value
2018-07-31T00:00:33.413Z,7.33
2018-07-31T00:03:01.641Z,8.00
2018-07-31T00:05:30.184Z,7.27
2018-07-31T00:07:58.400Z,7.20
2018-07-31T00:10:27.371Z,7.70
2018-07-31T00:12:55.774Z,7.23
2018-07-31T00:15:24.006Z,7.47
2018-07-31T00:17:52.577Z,7.80
2018-07-31T00:20:21.477Z,7.20
2018-07-31T00:22:50.023Z,7.20
2018-07-31T00:25:18.239Z,7.30
2018-07-31T00:27:46.801Z,7.50
2018-07-31T00:30:15.031Z,7.03
2018-07-31T00:32:43.237Z,7.30
2018-07-31T00:35:11.804Z,7.67
2018-07-31T00:37:40.347Z,7.87
2018-07-31T00:40:08.673Z,7.77
2018-07-31T00:42:36.890Z,7.20
2018-07-31T00:45:05.614Z,7.90
2018-07-31T00:47:35.186Z,8.30
2018-07-31T00:50:03.397Z,8.17
2018-07-31T00:52:31.946Z,7.80
2018-07-31T00:55:00.432Z,7.60
2018-07-31T00:57:28.668Z,6.63
2018-07-31T00:59:56.873Z,7.27
2018-07-31T01:02:25.113Z,7.60
2018-07-31T01:04:54.001Z,7.77
2018-07-31T01:07:22.227Z,7.67
2018-07-31T01:09:50.849Z,7.70
2018-07-31T01:12:19.462Z,7.93
2018-07-31T01:14:48.020Z,7.23
2018-07-31T01:17:16.901Z,8.40
2018-07-31T01:19:45.804Z,7.90
2018-07-31T01:22:14.353Z,8.53
2018-07-31T01:24:42.580Z,7.67
2018-07-31T01:27:10.844Z,8.40
2018-07-31T01:29:40.213Z,7.20
2018-07-31T01:32:08.436Z,7.40
2018-07-31T01:34:37.565Z,7.37
2018-07-31T01:37:05.778Z,7.00
2018-07-31T01:39:34.321Z,7.20
2018-07-31T01:42:02.524Z,8.13
2018-07-31T01:44:30.741Z,7.90
2018-07-31T01:46:59.380Z,7.90
2018-07-31T01:49:27.592Z,7.73
2018-07-31T01:51:55.792Z,8.70
2018-07-31T01:54:24.353Z,8.03
2018-07-31T01:56:52.554Z,7.90
2018-07-31T01:59:21.101Z,7.73
2018-07-31T02:01:49.348Z,7.17
2018-07-31T02:04:17.900Z,7.87
2018-07-31T02:06:46.805Z,7.73
2018-07-31T02:09:15.924Z,8.67
2018-07-31T02:11:44.312Z,7.90
2018-07-31T02:14:12.852Z,8.00
2018-07-31T02:16:41.436Z,8.40
2018-07-31T02:19:10.321Z,8.40
2018-07-31T02:21:38.880Z,7.90
2018-07-31T02:24:07.169Z,8.53
2018-07-31T02:26:35.713Z,8.90
2018-07-31T02:29:04.904Z,8.10
2018-07-31T02:31:33.131Z,8.50
2018-07-31T02:34:01.690Z,8.53
2018-07-31T02:36:30.596Z,7.80
2018-07-31T02:38:59.185Z,7.50
2018-07-31T02:41:27.422Z,8.43
2018-07-31T02:43:56.300Z,8.60
2018-07-31T02:46:24.498Z,9.17
2018-07-31T02:48:52.706Z,9.30
2018-07-31T02:51:21.717Z,8.83
2018-07-31T02:55:14.180Z,8.47
2018-07-31T02:57:42.733Z,8.73
2018-07-31T03:00:11.890Z,9.30
2018-07-31T03:02:40.782Z,7.63
2018-07-31T03:05:11.014Z,10.07
2018-07-31T03:07:39.958Z,9.47
2018-07-31T03:10:09.108Z,8.30
2018-07-31T03:12:37.325Z,8.53
2018-07-31T03:15:06.097Z,8.70
2018-07-31T03:17:34.641Z,9.40
2018-07-31T03:20:03.421Z,9.70
2018-07-31T03:22:31.928Z,8.53
2018-07-31T03:25:00.149Z,9.13
2018-07-31T03:27:28.389Z,8.37
2018-07-31T03:29:56.608Z,8.47
2018-07-31T03:32:25.161Z,8.10
2018-07-31T03:34:53.390Z,10.23
2018-07-31T03:37:22.222Z,9.25
2018-07-31T03:39:50.446Z,9.37
2018-07-31T03:42:19.365Z,9.43
2018-07-31T03:44:47.893Z,9.60
2018-07-31T03:47:16.113Z,9.40
2018-07-31T03:49:44.944Z,10.20
2018-07-31T03:52:13.499Z,9.10
2018-07-31T03:54:41.740Z,8.83
2018-07-31T03:57:09.953Z,9.10
2018-07-31T03:59:38.523Z,9.77
2018-07-31T04:02:07.412Z,8.20
2018-07-31T04:04:35.957Z,8.90
2018-07-31T04:07:04.202Z,9.30
2018-07-31T04:09:33.565Z,8.90
2018-07-31T04:12:01.794Z,8.53
2018-07-31T04:14:30.380Z,9.40
2018-07-31T04:16:59.316Z,9.00
2018-07-31T04:19:28.444Z,8.60
2018-07-31T04:21:56.991Z,9.33
2018-07-31T04:24:25.557Z,8.53
2018-07-31T04:26:54.708Z,8.55
2018-07-31T04:29:22.929Z,9.87
2018-07-31T04:31:51.261Z,8.87
2018-07-31T04:34:19.830Z,10.50
2018-07-31T04:36:48.098Z,9.23
2018-07-31T04:39:16.624Z,8.90
2018-07-31T04:41:45.481Z,8.75
2018-07-31T04:44:14.077Z,8.47
2018-07-31T04:46:42.298Z,9.60
2018-07-31T04:49:11.000Z,9.27
2018-07-31T04:51:39.220Z,8.50
2018-07-31T04:54:08.040Z,9.40
2018-07-31T04:56:36.964Z,7.50
2018-07-31T04:59:05.178Z,9.07
2018-07-31T05:01:33.724Z,8.70
2018-07-31T05:04:03.154Z,7.55
2018-07-31T05:06:32.297Z,7.87
2018-07-31T05:09:00.845Z,8.17
2018-07-31T05:11:29.409Z,8.07
2018-07-31T05:13:58.662Z,7.83
2018-07-31T05:16:27.754Z,7.67
2018-07-31T05:18:56.313Z,8.87
2018-07-31T05:21:24.536Z,8.67
2018-07-31T05:23:53.074Z,9.97
2018-07-31T05:26:21.626Z,8.97
2018-07-31T05:28:50.851Z,7.33
2018-07-31T05:31:19.749Z,8.90
2018-07-31T05:33:48.680Z,8.37
2018-07-31T05:36:17.565Z,7.23
2018-07-31T05:38:46.079Z,8.40
2018-07-31T05:41:14.327Z,9.97
2018-07-31T05:43:42.753Z,7.43
2018-07-31T05:46:11.382Z,6.90
2018-07-31T05:48:40.067Z,9.50
2018-07-31T05:51:08.285Z,10.67
2018-07-31T05:53:36.791Z,8.50
2018-07-31T05:56:05.913Z,7.57
2018-07-31T05:58:34.116Z,6.83
2018-07-31T06:01:02.338Z,16.33
2018-07-31T06:03:30.659Z,8.90
2018-07-31T06:05:59.212Z,7.13
2018-07-31T06:08:27.764Z,6.30
2018-07-31T06:10:57.057Z,10.20
2018-07-31T06:13:25.280Z,7.27
2018-07-31T06:15:54.537Z,9.57
2018-07-31T06:18:23.430Z,8.80
2018-07-31T06:20:52.011Z,6.33
2018-07-31T06:23:20.552Z,7.40
2018-07-31T06:25:49.107Z,18.53
2018-07-31T06:28:17.341Z,7.77
2018-07-31T06:30:45.554Z,7.23
2018-07-31T06:33:13.781Z,6.80
2018-07-31T06:35:42.310Z,6.50
2018-07-31T06:38:11.917Z,6.23
2018-07-31T06:40:40.486Z,6.13
2018-07-31T06:43:08.725Z,6.20
2018-07-31T06:45:37.314Z,5.00
2018-07-31T06:48:06.900Z,5.30
2018-07-31T06:50:35.906Z,6.10
2018-07-31T06:53:04.157Z,6.50
2018-07-31T06:55:32.744Z,9.17
2018-07-31T06:58:00.961Z,9.97
2018-07-31T07:00:29.175Z,10.90
2018-07-31T07:02:58.075Z,6.50
2018-07-31T07:05:26.638Z,5.90
2018-07-31T07:07:54.873Z,5.40
2018-07-31T07:10:24.108Z,5.70
2018-07-31T07:12:52.349Z,5.80
2018-07-31T07:18:16.997Z,5.60
2018-07-31T07:20:45.250Z,5.80
2018-07-31T07:23:13.919Z,7.07
2018-07-31T07:25:44.145Z,6.03
2018-07-31T07:28:12.384Z,5.33
2018-07-31T07:30:40.816Z,5.67
2018-07-31T07:33:09.033Z,5.23
2018-07-31T07:35:37.322Z,5.70
2018-07-31T07:38:06.186Z,5.80
2018-07-31T07:40:34.425Z,5.10
2018-07-31T07:43:02.665Z,4.87
2018-07-31T07:45:31.217Z,5.57
2018-07-31T07:48:00.358Z,5.60
2018-07-31T07:50:28.912Z,5.30
2018-07-31T07:52:57.809Z,4.97
2018-07-31T07:55:26.374Z,5.77
2018-07-31T07:57:54.610Z,4.83
2018-07-31T08:01:47.412Z,4.60
2018-07-31T08:04:16.287Z,5.10
2018-07-31T08:06:45.178Z,5.40
2018-07-31T08:09:14.053Z,4.87
2018-07-31T08:11:42.937Z,4.50
2018-07-31T08:14:11.491Z,4.97
2018-07-31T08:16:40.026Z,4.40
2018-07-31T08:19:08.237Z,4.80
2018-07-31T08:21:36.786Z,5.67
2018-07-31T08:24:05.343Z,5.57
2018-07-31T08:26:33.551Z,4.83
2018-07-31T08:29:02.110Z,4.57
2018-07-31T08:31:30.842Z,4.93
2018-07-31T08:33:59.068Z,5.83
2018-07-31T08:36:27.624Z,5.50
2018-07-31T08:38:55.827Z,4.63
2018-07-31T08:41:24.393Z,4.47
2018-07-31T08:43:53.798Z,4.87
2018-07-31T08:46:23.150Z,4.97
2018-07-31T08:48:51.371Z,4.70
2018-07-31T08:51:20.270Z,4.70
2018-07-31T08:53:48.837Z,3.80
2018-07-31T08:56:17.705Z,4.57
2018-07-31T08:58:46.249Z,4.60
2018-07-31T09:01:15.226Z,4.40
2018-07-31T09:03:43.780Z,4.10
2018-07-31T09:06:12.357Z,4.30
2018-07-31T09:08:40.638Z,4.80
2018-07-31T09:11:10.236Z,4.67
2018-07-31T09:13:38.235Z,5.00
2018-07-31T09:16:06.739Z,4.60
2018-07-31T09:18:35.765Z,4.47
2018-07-31T09:21:04.321Z,4.33
2018-07-31T09:23:32.301Z,3.93
2018-07-31T09:26:01.225Z,4.43
2018-07-31T09:28:29.898Z,4.30
2018-07-31T09:31:04.385Z,4.10
2018-07-31T09:33:33.662Z,4.57
2018-07-31T11:07:00.073Z,4.50
2018-07-31T11:09:30.216Z,4.33
2018-07-31T11:11:59.125Z,3.47
2018-07-31T11:14:27.549Z,4.10
2018-07-31T11:16:56.683Z,4.43
2018-07-31T11:19:24.914Z,3.83
2018-07-31T11:21:53.420Z,4.33
2018-07-31T11:24:21.662Z,4.70
2018-07-31T11:26:50.205Z,3.90
2018-07-31T11:29:18.757Z,3.53
2018-07-31T11:31:47.299Z,5.00
2018-07-31T11:34:15.492Z,4.10
2018-07-31T11:36:43.808Z,5.30
2018-07-31T11:39:13.117Z,4.40
2018-07-31T11:41:41.877Z,4.30
2018-07-31T11:44:10.107Z,4.97
2018-07-31T11:46:38.636Z,4.00
2018-07-31T11:49:07.656Z,3.77
2018-07-31T11:51:36.205Z,4.40
2018-07-31T11:54:04.429Z,4.07
2018-07-31T11:56:32.965Z,4.30
2018-07-31T11:59:01.183Z,4.30
2018-07-31T12:01:30.648Z,3.47
2018-07-31T12:03:58.857Z,3.30
2018-07-31T12:06:27.065Z,3.73
2018-07-31T12:08:55.277Z,4.13
2018-07-31T12:12:48.333Z,4.27
2018-07-31T12:15:16.578Z,3.37
2018-07-31T12:17:45.471Z,4.00
2018-07-31T12:20:13.682Z,3.97
2018-07-31T12:22:42.225Z,3.83
2018-07-31T12:25:10.818Z,3.80
2018-07-31T12:27:39.111Z,4.07
2018-07-31T12:30:09.036Z,4.03
2018-07-31T12:32:37.088Z,4.07
2018-07-31T12:35:05.290Z,4.40
2018-07-31T12:37:33.476Z,3.73
2018-07-31T12:40:02.021Z,3.80
2018-07-31T12:42:30.222Z,3.50
2018-07-31T12:44:58.450Z,4.50
2018-07-31T12:47:27.316Z,4.00
2018-07-31T12:49:55.568Z,4.03
2018-07-31T12:52:23.754Z,4.30
2018-07-31T12:54:51.960Z,4.00
2018-07-31T12:57:21.284Z,4.30
2018-07-31T12:59:49.844Z,4.67
2018-07-31T13:02:18.466Z,4.20
2018-07-31T13:04:46.705Z,3.60
2018-07-31T13:07:15.583Z,3.80
2018-07-31T13:09:44.476Z,4.47
2018-07-31T13:12:12.698Z,3.87
2018-07-31T13:14:40.888Z,3.50
2018-07-31T13:17:09.104Z,4.27
2018-07-31T13:19:37.322Z,3.67
2018-07-31T13:22:05.552Z,4.33
2018-07-31T13:24:33.750Z,4.00
2018-07-31T13:27:02.311Z,3.87
2018-07-31T13:29:30.869Z,3.90
2018-07-31T13:31:59.407Z,4.30
2018-07-31T13:34:28.005Z,3.70
2018-07-31T13:36:56.549Z,3.43
2018-07-31T13:39:25.337Z,3.63
2018-07-31T13:41:54.129Z,3.97
2018-07-31T13:44:23.653Z,4.47
2018-07-31T13:46:52.230Z,3.80
2018-07-31T13:49:21.246Z,3.70
2018-07-31T13:51:49.616Z,3.67
2018-07-31T13:54:18.150Z,3.83
2018-07-31T13:56:46.918Z,3.97
2018-07-31T13:59:15.550Z,4.53
2018-07-31T14:01:44.114Z,3.53
2018-07-31T14:04:12.732Z,3.67
2018-07-31T14:06:42.095Z,3.47
2018-07-31T14:09:11.441Z,3.30
2018-07-31T14:11:40.945Z,3.60
2018-07-31T14:14:09.309Z,3.83
2018-07-31T14:16:38.649Z,3.60
2018-07-31T14:19:07.229Z,3.50
2018-07-31T14:21:36.208Z,4.30
2018-07-31T14:24:04.804Z,3.60
2018-07-31T14:26:33.359Z,3.40
2018-07-31T14:29:01.905Z,3.30
2018-07-31T14:31:31.759Z,3.40
2018-07-31T14:34:01.324Z,3.80
2018-07-31T14:36:32.171Z,3.50
2018-07-31T14:39:05.621Z,3.37
2018-07-31T14:41:34.393Z,3.87
2018-07-31T14:44:04.370Z,3.83
2018-07-31T14:46:34.120Z,3.50
2018-07-31T14:49:02.353Z,3.37
2018-07-31T14:51:41.557Z,4.00
2018-07-31T14:54:10.660Z,3.53
2018-07-31T14:56:39.428Z,3.40
2018-07-31T14:59:08.764Z,3.40
2018-07-31T15:01:38.398Z,4.00
2018-07-31T15:04:06.976Z,3.93
2018-07-31T15:06:35.205Z,4.23
2018-07-31T15:09:05.541Z,3.40
2018-07-31T15:11:34.633Z,3.40
2018-07-31T15:14:02.850Z,3.83
2018-07-31T15:16:32.893Z,3.93
2018-07-31T15:19:01.982Z,3.70
2018-07-31T15:21:33.029Z,3.50
2018-07-31T15:24:01.651Z,3.90
2018-07-31T15:26:31.374Z,3.70
2018-07-31T15:29:01.918Z,4.53
2018-07-31T15:31:30.158Z,3.97
2018-07-31T15:33:59.291Z,3.90
2018-07-31T15:36:29.506Z,3.40
2018-07-31T15:38:58.122Z,3.70
2018-07-31T15:41:28.075Z,3.87
2018-07-31T15:43:57.949Z,3.60
2018-07-31T15:46:26.906Z,4.00
2018-07-31T15:48:56.446Z,3.20
2018-07-31T15:51:29.644Z,4.30
2018-07-31T15:53:58.262Z,3.53
2018-07-31T15:56:27.029Z,4.43
2018-07-31T15:58:56.421Z,4.33
2018-07-31T16:01:26.005Z,4.07
2018-07-31T16:03:54.755Z,2.90
2018-07-31T16:06:26.002Z,3.20
2018-07-31T16:08:54.923Z,3.57
2018-07-31T16:11:23.537Z,3.97
2018-07-31T16:13:51.788Z,4.20
2018-07-31T16:16:20.015Z,3.53
2018-07-31T16:18:48.988Z,3.50
2018-07-31T16:21:17.581Z,4.10
2018-07-31T16:23:46.470Z,3.40
2018-07-31T16:26:14.480Z,4.00
2018-07-31T16:28:43.959Z,4.23
2018-07-31T16:31:12.186Z,3.70
2018-07-31T16:33:41.065Z,4.10
2018-07-31T16:36:09.998Z,4.00
2018-07-31T16:38:38.532Z,3.43
2018-07-31T16:41:08.999Z,3.83
2018-07-31T16:43:37.248Z,3.90
2018-07-31T16:46:10.122Z,5.00
2018-07-31T16:48:49.614Z,3.77
2018-07-31T16:51:17.895Z,7.17
2018-07-31T16:53:46.714Z,7.20
2018-07-31T16:56:15.266Z,4.30
2018-07-31T16:58:43.906Z,8.87
2018-07-31T17:01:12.189Z,6.60
2018-07-31T17:03:41.531Z,3.83
2018-07-31T17:06:10.511Z,4.20
2018-07-31T17:08:38.750Z,6.30
2018-07-31T17:11:07.029Z,4.50
2018-07-31T17:13:35.253Z,3.93
2018-07-31T17:16:08.202Z,3.50
2018-07-31T17:18:37.621Z,4.40
2018-07-31T17:21:05.867Z,3.47
2018-07-31T17:23:34.083Z,4.30
2018-07-31T17:26:02.983Z,3.43
2018-07-31T17:28:32.245Z,3.73
2018-07-31T17:31:01.575Z,4.40
2018-07-31T17:33:30.148Z,4.57
2018-07-31T17:35:58.741Z,3.77
2018-07-31T17:38:31.530Z,3.40
2018-07-31T17:41:02.352Z,3.40
2018-07-31T17:43:42.461Z,4.10
2018-07-31T17:46:12.531Z,4.10
2018-07-31T17:48:41.416Z,5.77
2018-07-31T17:51:10.697Z,4.57
2018-07-31T17:53:40.716Z,3.50
2018-07-31T17:56:09.285Z,4.23
2018-07-31T17:58:37.873Z,3.67
2018-07-31T18:01:06.409Z,3.43
2018-07-31T18:03:35.372Z,4.53
2018-07-31T18:08:57.602Z,3.37
2018-07-31T18:11:29.477Z,3.60
2018-07-31T18:13:58.776Z,3.60
2018-07-31T18:16:27.809Z,6.30
2018-07-31T18:18:56.364Z,4.00
2018-07-31T18:24:22.973Z,4.43
2018-07-31T18:26:51.195Z,4.37
2018-07-31T18:29:19.999Z,4.30
2018-07-31T18:31:48.559Z,4.17
2018-07-31T18:34:16.824Z,4.37
2018-07-31T18:36:45.093Z,4.90
2018-07-31T18:39:14.194Z,3.90
2018-07-31T18:41:42.932Z,4.33
2018-07-31T18:44:11.653Z,4.30
2018-07-31T18:46:40.213Z,3.97
2018-07-31T18:49:08.506Z,4.90
2018-07-31T18:51:39.401Z,4.10
2018-07-31T18:54:08.241Z,4.33
2018-07-31T18:56:39.953Z,3.80
2018-07-31T18:59:17.342Z,4.33
2018-07-31T19:01:46.031Z,4.57
2018-07-31T19:07:21.937Z,4.37
2018-07-31T19:09:51.314Z,4.10
2018-07-31T19:12:21.136Z,4.03
2018-07-31T19:14:50.875Z,4.13
2018-07-31T19:17:21.671Z,4.00
2018-07-31T19:19:55.431Z,3.60
2018-07-31T19:22:26.892Z,4.10
2018-07-31T19:24:55.688Z,4.23
2018-07-31T19:27:30.435Z,5.33
2018-07-31T19:30:12.240Z,4.80
2018-07-31T19:33:42.866Z,5.43
2018-07-31T19:39:23.299Z,4.47
2018-07-31T19:48:00.709Z,5.33
2018-07-31T19:50:29.337Z,5.50
2018-07-31T20:12:03.933Z,5.27
2018-07-31T20:14:32.181Z,5.70
2018-07-31T20:17:00.731Z,5.97
2018-07-31T20:19:29.848Z,5.67
2018-07-31T20:21:58.737Z,5.30
2018-07-31T20:24:27.336Z,6.50
2018-07-31T20:26:56.228Z,5.50
2018-07-31T20:29:24.776Z,6.03
2018-07-31T20:31:53.011Z,6.00
2018-07-31T20:34:21.570Z,6.00
2018-07-31T20:36:49.790Z,6.80
2018-07-31T20:39:18.001Z,5.70
2018-07-31T20:41:46.303Z,6.00
2018-07-31T20:44:14.649Z,5.57
2018-07-31T20:46:43.533Z,6.63
2018-07-31T20:49:13.068Z,6.20
2018-07-31T20:51:41.310Z,6.50
2018-07-31T20:54:12.329Z,6.73
2018-07-31T20:56:41.449Z,5.87
2018-07-31T20:59:10.032Z,6.53
2018-07-31T21:01:38.580Z,5.70
2018-07-31T21:04:07.241Z,5.47
2018-07-31T21:06:36.370Z,5.17
2018-07-31T21:09:07.779Z,6.80
2018-07-31T21:11:36.170Z,5.43
2018-07-31T21:14:04.409Z,5.63
2018-07-31T21:16:32.988Z,6.37
2018-07-31T21:19:01.336Z,5.70
2018-07-31T21:21:29.709Z,5.70
2018-07-31T21:23:58.581Z,6.30
2018-07-31T21:26:27.144Z,6.43
2018-07-31T21:29:32.833Z,6.50
2018-07-31T21:32:01.649Z,5.00
2018-07-31T21:34:30.254Z,5.53
2018-07-31T21:36:58.847Z,5.90
2018-07-31T21:39:29.960Z,5.87
2018-07-31T21:42:08.180Z,6.13
2018-07-31T21:44:36.437Z,5.50
2018-07-31T21:47:06.544Z,5.60
2018-07-31T21:49:36.581Z,5.53
2018-07-31T21:52:06.073Z,6.13
2018-07-31T21:57:16.261Z,5.70
2018-07-31T21:59:45.030Z,5.37
2018-07-31T22:02:14.521Z,5.47
2018-07-31T22:04:43.082Z,5.40
2018-07-31T22:07:11.636Z,5.73
2018-07-31T22:09:52.533Z,6.00
2018-07-31T22:12:21.640Z,6.13
2018-07-31T22:14:49.885Z,6.57
2018-07-31T22:17:19.515Z,6.27
2018-07-31T22:19:48.739Z,5.27
2018-07-31T22:22:17.654Z,6.13
2018-07-31T22:24:46.329Z,6.00
2018-07-31T22:27:16.287Z,6.73
2018-07-31T22:29:44.754Z,5.87
2018-07-31T22:32:13.336Z,6.80
2018-07-31T22:34:41.905Z,5.60
2018-07-31T22:37:10.193Z,6.33
2018-07-31T22:39:38.773Z,6.53
2018-07-31T22:42:07.694Z,6.23
2018-07-31T22:44:36.607Z,7.80
2018-07-31T22:47:04.828Z,6.40
2018-07-31T22:49:33.392Z,6.67
2018-07-31T22:52:01.752Z,6.57
2018-07-31T22:54:30.014Z,6.40
2018-07-31T22:56:58.794Z,6.80
2018-07-31T22:59:27.417Z,5.73
2018-07-31T23:01:56.364Z,6.40
2018-07-31T23:04:24.565Z,7.10
2018-07-31T23:06:53.106Z,7.47
2018-07-31T23:09:22.483Z,6.77
2018-07-31T23:11:51.049Z,6.40
2018-07-31T23:14:19.596Z,6.60
2018-07-31T23:16:48.438Z,6.13
2018-07-31T23:19:16.661Z,6.30
2018-07-31T23:21:45.221Z,6.97
2018-07-31T23:24:13.775Z,7.03
2018-07-31T23:26:42.618Z,6.53
2018-07-31T23:29:12.073Z,8.03
2018-07-31T23:31:40.630Z,6.40
2018-07-31T23:34:09.192Z,7.00
2018-07-31T23:36:38.413Z,6.47
2018-07-31T23:39:09.597Z,7.20
2018-07-31T23:41:38.652Z,6.33
2018-07-31T23:44:06.938Z,6.80
2018-07-31T23:46:35.509Z,6.30
2018-07-31T23:49:03.728Z,6.50
2018-07-31T23:51:31.973Z,7.80
2018-07-31T23:54:00.735Z,7.00
2018-07-31T23:56:28.963Z,6.40
2018-07-31T23:58:57.167Z,7.00
